Time;durP1;ratioP1;P1;durP2;ratioP2;P2;SDS_P1;SDS_P2;PMS_P1;PMS_P2;Temp;Humidity;BMP_temperature;BMP_pressure;BME280_temperature;BME280_humidity;BME280_pressure;Samples;Min_cycle;Max_cycle;Signal;HPM_P1;HPM_P2
2021/08/24 00:00:51;;;;;;;2.90;2.70;;;;;;;24.26;48.55;99079.97;5057135;28;20196;-49
2021/08/24 00:03:18;;;;;;;2.80;2.60;;;;;;;24.26;48.43;99074.63;5055230;28;20579;-49
2021/08/24 00:05:46;;;;;;;2.30;2.20;;;;;;;24.27;48.58;99077.13;5054834;28;20691;-49
2021/08/24 00:08:14;;;;;;;2.80;2.60;;;;;;;24.27;48.43;99066.44;5055089;28;20185;-49
2021/08/24 00:10:48;;;;;;;2.60;2.40;;;;;;;24.30;48.23;99071.41;5054842;28;20189;-49
2021/08/24 00:13:16;;;;;;;2.97;2.77;;;;;;;24.30;48.39;99060.75;5054721;28;20205;-51
2021/08/24 00:15:44;;;;;;;2.60;2.40;;;;;;;24.27;48.32;99063.78;5054763;28;20562;-49
2021/08/24 00:18:11;;;;;;;2.80;2.60;;;;;;;24.26;48.38;99067.47;5054631;28;20656;-49
2021/08/24 00:20:41;;;;;;;2.80;2.60;;;;;;;24.25;48.58;99065.81;5054922;28;20598;-50
2021/08/24 00:23:11;;;;;;;2.80;2.63;;;;;;;24.30;48.35;99066.06;5055062;28;20255;-50
2021/08/24 00:25:38;;;;;;;3.00;2.80;;;;;;;24.29;48.35;99066.28;5054486;28;20205;-51
2021/08/24 00:28:06;;;;;;;2.90;2.70;;;;;;;24.24;48.52;99072.16;5054454;28;20185;-49
2021/08/24 00:30:33;;;;;;;2.80;2.60;;;;;;;24.23;48.41;99071.31;5054534;28;20216;-51
2021/08/24 00:32:59;;;;;;;2.70;2.50;;;;;;;24.24;48.45;99069.50;5054385;28;20209;-49
2021/08/24 00:35:26;;;;;;;3.03;2.73;;;;;;;24.28;48.49;99069.94;5054869;28;20182;-50
2021/08/24 00:37:52;;;;;;;2.63;2.43;;;;;;;24.30;48.30;99074.06;5054308;28;20189;-49
2021/08/24 00:40:20;;;;;;;2.50;2.40;;;;;;;24.31;48.27;99072.25;5054328;28;20550;-50
2021/08/24 00:42:46;;;;;;;2.43;2.30;;;;;;;24.33;48.17;99073.69;5054206;28;20209;-49
2021/08/24 00:45:14;;;;;;;2.70;2.60;;;;;;;24.29;48.35;99069.75;5054648;28;20247;-49
2021/08/24 00:47:48;;;;;;;2.57;2.37;;;;;;;24.26;48.30;99075.47;5054754;28;20189;-49
2021/08/24 00:50:17;;;;;;;2.80;2.60;;;;;;;24.25;48.58;99071.16;5054067;28;20184;-49
2021/08/24 00:52:46;;;;;;;3.00;2.70;;;;;;;24.21;48.48;99072.53;5053451;28;20209;-47
2021/08/24 00:55:14;;;;;;;2.60;2.40;;;;;;;24.20;48.46;99076.19;5053936;28;20185;-49
2021/08/24 00:57:44;;;;;;;2.70;2.50;;;;;;;24.23;48.39;99073.16;5053931;28;20204;-49
2021/08/24 01:00:11;;;;;;;3.00;2.80;;;;;;;24.24;48.34;99074.81;5053921;28;20189;-49
2021/08/24 01:02:38;;;;;;;2.80;2.60;;;;;;;24.27;48.21;99070.94;5053783;28;20211;-49
2021/08/24 01:05:05;;;;;;;2.53;2.33;;;;;;;24.24;48.23;99072.97;5053828;28;20247;-49
2021/08/24 01:07:46;;;;;;;2.77;2.40;;;;;;;24.26;48.31;99072.81;5053773;28;20204;-49
2021/08/24 01:10:34;;;;;;;2.90;2.70;;;;;;;24.31;48.22;99073.06;5054107;28;20260;-49
2021/08/24 01:13:26;;;;;;;2.90;2.70;;;;;;;24.23;48.23;99076.66;5053885;28;20217;-47
2021/08/24 01:16:00;;;;;;;2.63;2.43;;;;;;;24.23;48.22;99075.84;5053651;28;20178;-49
2021/08/24 01:18:33;;;;;;;2.70;2.50;;;;;;;24.27;48.10;99073.59;5053881;28;20182;-49
2021/08/24 01:21:17;;;;;;;2.70;2.60;;;;;;;24.27;47.73;99070.94;5053675;28;20185;-49
2021/08/24 01:24:07;;;;;;;2.50;2.37;;;;;;;24.25;48.25;99073.81;5053548;28;20212;-49
2021/08/24 01:26:46;;;;;;;3.13;2.93;;;;;;;24.24;48.16;99069.50;5050443;28;20711;-49
2021/08/24 01:29:49;;;;;;;2.90;2.70;;;;;;;24.25;48.36;99071.16;5053718;28;20712;-47
2021/08/24 01:32:41;;;;;;;2.70;2.50;;;;;;;24.25;48.09;99068.47;5053876;28;20578;-49
2021/08/24 01:35:32;;;;;;;2.83;2.63;;;;;;;24.19;48.18;99069.19;5053478;28;20212;-49
2021/08/24 01:38:13;;;;;;;2.73;2.53;;;;;;;24.19;48.23;99072.69;5053770;28;20188;-49
2021/08/24 01:41:14;;;;;;;2.70;2.50;;;;;;;24.21;48.21;99077.88;5053711;28;20173;-49
2021/08/24 01:43:53;;;;;;;2.50;2.40;;;;;;;24.19;48.10;99083.38;5053212;28;20224;-49
2021/08/24 01:46:57;;;;;;;3.03;2.83;;;;;;;24.18;48.13;99081.72;5053431;28;20204;-49
2021/08/24 01:49:31;;;;;;;2.80;2.60;;;;;;;24.15;48.19;99078.56;5053861;28;20188;-49
2021/08/24 01:52:02;;;;;;;2.80;2.60;;;;;;;24.15;48.10;99083.91;5053309;28;20571;-49
2021/08/24 01:54:35;;;;;;;3.10;2.40;;;;;;;24.15;48.21;99091.91;5053193;28;20182;-49
2021/08/24 01:57:07;;;;;;;2.77;2.57;;;;;;;24.15;48.15;99084.75;5053414;28;20667;-49
2021/08/24 01:59:39;;;;;;;2.97;2.77;;;;;;;24.18;48.13;99083.53;5053444;28;20193;-49
2021/08/24 02:02:29;;;;;;;2.87;2.67;;;;;;;24.24;47.85;99093.50;5051781;28;20251;-49
2021/08/24 02:05:08;;;;;;;2.87;2.67;;;;;;;24.25;47.98;99089.81;5054343;28;20624;-49
2021/08/24 02:07:35;;;;;;;2.70;2.60;;;;;;;24.20;47.90;99076.19;5057502;28;20181;-49
2021/08/24 02:10:19;;;;;;;2.83;2.60;;;;;;;24.26;47.97;99088.81;5057160;28;20195;-48
2021/08/24 02:12:47;;;;;;;2.67;2.47;;;;;;;24.27;47.83;99086.94;5057240;28;20220;-49
2021/08/24 02:15:16;;;;;;;2.43;2.33;;;;;;;24.28;47.78;99078.78;5057046;28;20208;-49
2021/08/24 02:17:45;;;;;;;2.50;2.40;;;;;;;24.28;47.63;99078.78;5057028;28;20189;-49
2021/08/24 02:20:34;;;;;;;2.60;2.40;;;;;;;24.27;47.78;99084.28;5057026;28;20227;-49
2021/08/24 02:23:07;;;;;;;2.53;2.33;;;;;;;24.24;47.77;99082.81;5056761;28;20201;-49
2021/08/24 02:25:42;;;;;;;2.43;2.33;;;;;;;24.22;47.91;99083.00;5056727;28;20197;-49
2021/08/24 02:28:12;;;;;;;2.77;2.57;;;;;;;24.14;48.04;99088.44;5057009;28;20173;-49
2021/08/24 02:30:47;;;;;;;2.70;2.50;;;;;;;24.16;48.09;99089.06;5057040;28;20170;-48
2021/08/24 02:33:14;;;;;;;2.83;2.67;;;;;;;24.17;47.88;99082.72;5057133;28;20622;-49
2021/08/24 02:35:49;;;;;;;2.47;2.37;;;;;;;24.20;48.01;99084.19;5056730;28;20231;-49
2021/08/24 02:38:27;;;;;;;2.87;2.67;;;;;;;24.20;47.91;99086.84;5056928;28;20231;-49
2021/08/24 02:41:01;;;;;;;2.60;2.40;;;;;;;24.21;47.76;99081.34;5056980;28;20231;-49
2021/08/24 02:44:03;;;;;;;2.93;2.73;;;;;;;24.19;47.82;99088.69;5056405;28;20209;-49
2021/08/24 02:46:32;;;;;;;2.33;2.13;;;;;;;24.21;47.83;99086.69;5056510;28;20193;-51
2021/08/24 02:49:14;;;;;;;2.50;2.30;;;;;;;24.21;47.70;99083.19;5056409;28;20193;-50
2021/08/24 02:51:42;;;;;;;3.00;2.57;;;;;;;24.21;47.87;99080.53;5056889;28;20174;-50
2021/08/24 02:54:11;;;;;;;2.37;2.27;;;;;;;24.23;47.74;99092.66;5056278;28;20243;-49
2021/08/24 02:56:38;;;;;;;2.70;2.50;;;;;;;24.24;47.69;99082.81;5056819;28;20242;-49
2021/08/24 02:59:05;;;;;;;2.60;2.40;;;;;;;24.24;47.54;99088.16;5056475;28;20193;-48
2021/08/24 03:01:32;;;;;;;2.10;2.00;;;;;;;24.26;47.70;99082.63;5056337;28;20652;-49
2021/08/24 03:03:59;;;;;;;2.50;2.30;;;;;;;24.26;47.61;99086.13;5054812;28;20189;-47
2021/08/24 03:06:27;;;;;;;2.43;2.30;;;;;;;24.25;47.49;99089.81;5055989;28;20209;-49
2021/08/24 03:08:54;;;;;;;2.50;2.30;;;;;;;24.23;47.59;99089.97;5055992;28;20190;-49
2021/08/24 03:11:25;;;;;;;2.37;2.27;;;;;;;24.21;47.60;99081.34;5056072;28;20194;-49
2021/08/24 03:13:59;;;;;;;2.40;2.20;;;;;;;24.24;47.67;99096.16;5055959;28;20185;-50
2021/08/24 03:16:39;;;;;;;2.00;1.90;;;;;;;24.24;47.56;99088.97;5056028;28;20227;-49
2021/08/24 03:19:12;;;;;;;2.20;2.10;;;;;;;24.20;47.58;99089.50;5056436;28;20612;-49
2021/08/24 03:21:40;;;;;;;2.40;2.20;;;;;;;24.19;47.67;99090.53;5055884;28;20181;-49
2021/08/24 03:24:09;;;;;;;2.33;2.23;;;;;;;24.18;47.67;99086.22;5055727;28;20185;-49
2021/08/24 03:26:39;;;;;;;2.57;2.37;;;;;;;24.18;47.57;99096.88;5056265;28;20209;-49
2021/08/24 03:29:21;;;;;;;2.50;2.30;;;;;;;24.18;47.66;99088.88;5054487;28;20185;-48
2021/08/24 03:31:55;;;;;;;2.27;2.17;;;;;;;24.13;47.73;99088.59;5056082;28;20600;-49
2021/08/24 03:34:24;;;;;;;2.43;2.33;;;;;;;24.09;47.81;99090.78;5055849;28;20630;-49
2021/08/24 03:36:51;;;;;;;2.17;2.07;;;;;;;24.09;48.00;99085.47;5055500;28;20189;-48
2021/08/24 03:39:17;;;;;;;2.07;1.97;;;;;;;24.13;47.61;99091.28;5055417;28;20186;-49
2021/08/24 03:41:44;;;;;;;3.07;2.20;;;;;;;24.17;47.57;99087.22;5055579;28;20197;-49
2021/08/24 03:44:10;;;;;;;2.30;2.10;;;;;;;24.18;47.61;99088.88;5055317;28;20258;-49
2021/08/24 03:46:37;;;;;;;2.33;2.23;;;;;;;24.18;47.49;99094.22;5055272;28;20216;-50
2021/08/24 03:49:04;;;;;;;2.23;2.13;;;;;;;24.18;47.57;99094.22;5055833;28;20656;-49
2021/08/24 03:51:30;;;;;;;2.67;2.23;;;;;;;24.14;47.69;99095.59;5055351;28;20196;-49
2021/08/24 03:53:57;;;;;;;2.50;1.97;;;;;;;24.18;47.56;99102.22;5055188;28;20189;-49
2021/08/24 03:56:23;;;;;;;2.50;2.30;;;;;;;24.12;47.47;99097.63;5055136;28;20189;-50
2021/08/24 03:58:50;;;;;;;2.43;2.23;;;;;;;24.10;47.60;99097.78;5055118;28;20193;-51
2021/08/24 04:01:18;;;;;;;2.60;2.40;;;;;;;24.15;47.43;99097.25;5055031;28;20598;-50
2021/08/24 04:03:45;;;;;;;2.20;2.00;;;;;;;24.24;47.18;99110.31;5054942;28;20232;-49
2021/08/24 04:06:12;;;;;;;2.20;2.00;;;;;;;24.25;47.11;99108.47;5055137;28;20213;-49
2021/08/24 04:08:39;;;;;;;2.07;1.97;;;;;;;24.28;47.24;99120.59;5055288;28;20583;-50
2021/08/24 04:11:07;;;;;;;2.67;2.13;;;;;;;24.25;47.14;99121.81;5054979;28;20236;-49
2021/08/24 04:13:34;;;;;;;2.03;1.90;;;;;;;24.21;47.35;99124.00;5054745;28;20223;-50
2021/08/24 04:16:09;;;;;;;2.20;2.10;;;;;;;24.17;47.39;99125.41;5054779;28;20253;-49
2021/08/24 04:18:37;;;;;;;2.30;2.03;;;;;;;24.06;47.60;99124.00;5055300;28;20173;-49
2021/08/24 04:21:09;;;;;;;2.00;1.90;;;;;;;24.07;47.66;99133.66;5055086;28;20589;-49
2021/08/24 04:23:36;;;;;;;2.20;2.00;;;;;;;24.05;47.59;99129.50;5054628;28;20613;-49
2021/08/24 04:26:03;;;;;;;2.27;2.13;;;;;;;24.06;47.44;99134.66;5054396;28;20213;-49
2021/08/24 04:28:29;;;;;;;2.13;2.03;;;;;;;24.07;47.49;99131.00;5053700;28;20190;-49
2021/08/24 04:30:57;;;;;;;2.30;2.10;;;;;;;24.05;47.57;99133.00;5054674;28;20189;-49
2021/08/24 04:33:23;;;;;;;2.30;2.10;;;;;;;24.08;47.44;99131.81;5055090;28;20214;-50
2021/08/24 04:35:52;;;;;;;2.00;1.90;;;;;;;24.05;47.57;99138.34;5054835;28;20185;-49
2021/08/24 04:38:19;;;;;;;1.90;1.80;;;;;;;24.04;47.61;99134.00;5054294;28;20554;-49
2021/08/24 04:40:46;;;;;;;2.13;2.00;;;;;;;24.07;47.58;99136.31;5054269;28;20190;-49
2021/08/24 04:43:13;;;;;;;1.80;1.70;;;;;;;24.10;47.34;99133.28;5054129;28;20220;-49
2021/08/24 04:45:40;;;;;;;2.03;1.93;;;;;;;24.07;47.52;99132.81;5054095;28;20598;-49
2021/08/24 04:48:06;;;;;;;2.07;1.97;;;;;;;24.06;47.48;99140.00;5054170;28;20196;-49
2021/08/24 04:50:34;;;;;;;2.00;1.90;;;;;;;24.06;47.50;99140.00;5054023;28;20530;-50
2021/08/24 04:53:00;;;;;;;2.10;2.00;;;;;;;24.09;47.34;99152.13;5054154;28;20213;-49
2021/08/24 04:55:27;;;;;;;2.10;1.90;;;;;;;24.09;47.44;99144.13;5053991;28;20702;-47
2021/08/24 04:57:53;;;;;;;2.03;1.93;;;;;;;24.08;47.29;99137.13;5054031;28;20194;-49
2021/08/24 05:00:20;;;;;;;2.27;2.10;;;;;;;24.05;47.48;99148.16;5053938;28;20200;-49
2021/08/24 05:02:48;;;;;;;2.47;2.27;;;;;;;23.98;47.49;99142.69;5052780;28;20201;-48
2021/08/24 05:05:16;;;;;;;2.10;2.00;;;;;;;24.00;47.44;99146.00;5053869;28;20567;-50
2021/08/24 05:07:42;;;;;;;1.90;1.80;;;;;;;24.03;47.35;99150.19;5053978;28;20210;-49
2021/08/24 05:10:09;;;;;;;1.80;1.70;;;;;;;24.03;47.35;99151.00;5053863;28;20189;-49
2021/08/24 05:12:36;;;;;;;2.20;2.10;;;;;;;24.05;47.36;99153.50;5053701;28;20691;-49
2021/08/24 05:15:03;;;;;;;2.00;1.90;;;;;;;24.06;47.24;99153.34;5052815;28;20193;-49
2021/08/24 05:17:29;;;;;;;2.10;1.97;;;;;;;24.07;47.20;99155.00;5054134;28;20247;-49
2021/08/24 05:19:58;;;;;;;1.90;1.80;;;;;;;24.06;47.31;99156.00;5053725;28;20185;-47
2021/08/24 05:22:25;;;;;;;1.90;1.80;;;;;;;24.07;47.24;99154.16;5053459;28;20236;-49
2021/08/24 05:24:51;;;;;;;2.10;1.90;;;;;;;24.07;47.18;99157.66;5053934;28;20268;-49
2021/08/24 05:27:18;;;;;;;2.00;1.80;;;;;;;24.09;47.23;99160.97;5053540;28;20214;-50
2021/08/24 05:29:45;;;;;;;1.70;1.60;;;;;;;24.13;47.13;99168.59;5053179;28;20196;-49
2021/08/24 05:32:11;;;;;;;2.00;1.70;;;;;;;24.08;47.17;99161.97;5053328;28;20220;-49
2021/08/24 05:34:38;;;;;;;1.70;1.57;;;;;;;24.08;47.23;99155.78;5053994;28;20196;-49
2021/08/24 05:37:05;;;;;;;1.87;1.77;;;;;;;24.05;47.15;99159.69;5053475;28;20193;-49
2021/08/24 05:39:33;;;;;;;1.80;1.70;;;;;;;24.12;47.10;99161.59;5053262;28;20326;-49
2021/08/24 05:42:01;;;;;;;1.80;1.70;;;;;;;24.14;46.92;99160.44;5053476;28;20235;-49
2021/08/24 05:44:28;;;;;;;1.87;1.77;;;;;;;24.19;46.78;99173.19;5051991;28;20185;-49
2021/08/24 05:46:54;;;;;;;2.07;1.90;;;;;;;24.23;46.92;99161.19;5053028;28;20209;-49
2021/08/24 05:49:22;;;;;;;1.90;1.80;;;;;;;24.14;47.02;99162.25;5053389;28;20186;-51
2021/08/24 05:51:48;;;;;;;1.70;1.60;;;;;;;24.11;47.05;99166.09;5053273;28;20273;-49
2021/08/24 05:54:15;;;;;;;2.13;1.93;;;;;;;24.13;46.90;99168.59;5053296;28;20254;-50
2021/08/24 05:56:43;;;;;;;2.20;2.00;;;;;;;24.15;46.80;99170.09;5053172;28;20201;-49
2021/08/24 05:59:09;;;;;;;1.80;1.70;;;;;;;24.16;46.84;99169.06;5053440;28;20186;-49
2021/08/24 06:01:36;;;;;;;2.10;1.90;;;;;;;24.17;46.69;99175.22;5053402;28;20189;-49
2021/08/24 06:04:03;;;;;;;2.23;1.77;;;;;;;24.18;46.91;99172.38;5053207;28;20193;-48
2021/08/24 06:06:35;;;;;;;2.20;2.00;;;;;;;24.21;46.90;99176.53;5053584;28;20216;-49
2021/08/24 06:09:04;;;;;;;2.03;1.90;;;;;;;24.18;46.65;99172.38;5053574;28;20185;-47
2021/08/24 06:11:37;;;;;;;4.17;2.17;;;;;;;24.09;46.01;99176.97;5052988;28;20190;-46
2021/08/24 06:14:06;;;;;;;4.27;2.33;;;;;;;23.82;45.61;99173.81;5053124;28;20543;-48
2021/08/24 06:16:34;;;;;;;2.77;2.10;;;;;;;23.63;44.76;99171.63;5053076;28;20272;-48
2021/08/24 06:19:01;;;;;;;4.37;2.20;;;;;;;23.45;44.66;99172.75;5053382;28;20618;-50
2021/08/24 06:21:28;;;;;;;3.70;2.03;;;;;;;23.33;44.54;99174.13;5053269;28;20193;-49
2021/08/24 06:23:55;;;;;;;2.70;2.40;;;;;;;23.23;44.80;99169.81;5052847;28;20194;-48
2021/08/24 06:26:22;;;;;;;2.70;1.93;;;;;;;23.18;44.46;99180.16;5052801;28;20259;-48
2021/08/24 06:28:49;;;;;;;4.20;1.97;;;;;;;23.13;44.64;99171.88;5052762;28;20197;-48
2021/08/24 06:31:22;;;;;;;4.93;2.20;;;;;;;23.07;44.36;99178.72;5053180;28;20200;-48
2021/08/24 06:33:50;;;;;;;4.03;2.00;;;;;;;22.99;44.53;99180.59;5052789;28;20213;-47
2021/08/24 06:36:17;;;;;;;2.57;2.30;;;;;;;22.97;44.65;99181.59;5052922;28;20185;-48
2021/08/24 06:38:45;;;;;;;3.07;2.10;;;;;;;22.99;44.32;99180.59;5053345;28;20189;-48
2021/08/24 06:41:13;;;;;;;2.80;1.90;;;;;;;22.92;44.55;99180.44;5051854;28;20193;-47
2021/08/24 06:43:39;;;;;;;2.97;1.83;;;;;;;22.95;44.43;99180.94;5051568;28;20221;-48
2021/08/24 06:46:06;;;;;;;3.93;2.03;;;;;;;22.93;44.38;99182.97;5053120;28;20196;-48
2021/08/24 06:48:34;;;;;;;3.07;2.00;;;;;;;22.95;44.25;99180.09;5052878;28;20190;-48
2021/08/24 06:51:01;;;;;;;2.87;1.73;;;;;;;22.99;44.08;99181.41;5052897;28;20671;-46
2021/08/24 06:53:27;;;;;;;4.03;1.90;;;;;;;22.95;44.52;99180.94;5056156;28;20205;-48
2021/08/24 06:55:54;;;;;;;2.27;2.00;;;;;;;22.99;44.22;99181.41;5056317;28;20189;-48
2021/08/24 06:58:21;;;;;;;2.07;1.60;;;;;;;23.06;44.13;99173.56;5056437;28;20177;-48
2021/08/24 07:00:48;;;;;;;4.03;2.07;;;;;;;23.11;44.05;99180.03;5056656;28;20652;-47
2021/08/24 07:03:16;;;;;;;6.23;1.93;;;;;;;23.13;44.21;99179.88;5056244;28;20753;-48
2021/08/24 07:05:46;;;;;;;3.77;1.93;;;;;;;23.17;43.86;99178.50;5056887;28;20190;-47
2021/08/24 07:08:14;;;;;;;3.77;1.77;;;;;;;23.21;43.92;99171.81;5056211;28;20201;-47
2021/08/24 07:10:41;;;;;;;2.80;1.97;;;;;;;23.19;44.11;99173.84;5056311;28;20190;-48
2021/08/24 07:13:08;;;;;;;3.60;2.00;;;;;;;23.21;44.21;99173.69;5056198;28;20209;-48
2021/08/24 07:15:36;;;;;;;2.17;1.77;;;;;;;23.19;44.36;99170.38;5055662;28;20193;-48
2021/08/24 07:18:04;;;;;;;2.17;1.50;;;;;;;23.19;43.96;99176.50;5056014;28;20644;-48
2021/08/24 07:20:30;;;;;;;3.07;1.83;;;;;;;23.21;43.66;99184.31;5055728;28;20555;-48
2021/08/24 07:22:59;;;;;;;1.77;1.63;;;;;;;23.18;43.82;99179.34;5055338;28;20213;-47
2021/08/24 07:25:26;;;;;;;6.73;1.60;;;;;;;23.16;43.79;99176.84;5055648;28;20193;-49
2021/08/24 07:27:54;;;;;;;2.27;1.70;;;;;;;23.15;43.47;99177.88;5055542;28;20562;-49
2021/08/24 07:30:22;;;;;;;2.40;1.63;;;;;;;23.16;43.38;99181.34;5055723;28;20192;-47
2021/08/24 07:32:48;;;;;;;2.20;1.40;;;;;;;23.13;43.24;99171.88;5055214;28;20213;-51
2021/08/24 07:35:17;;;;;;;3.07;1.80;;;;;;;23.17;43.36;99173.19;5055529;28;20266;-48
2021/08/24 07:37:44;;;;;;;2.30;1.80;;;;;;;23.14;43.59;99173.53;5055218;28;20193;-49
2021/08/24 07:40:12;;;;;;;3.37;1.60;;;;;;;23.17;43.24;99169.72;5054906;28;20193;-49
2021/08/24 07:42:40;;;;;;;3.00;1.67;;;;;;;23.22;42.79;99165.50;5054765;28;20267;-49
2021/08/24 07:45:08;;;;;;;1.80;1.57;;;;;;;23.22;42.90;99168.16;5055266;28;20166;-51
2021/08/24 07:47:35;;;;;;;2.77;1.63;;;;;;;23.24;43.00;99176.84;5055201;28;20209;-49
2021/08/24 07:50:03;;;;;;;4.30;1.70;;;;;;;23.28;42.70;99173.84;5054724;28;20215;-49
2021/08/24 07:52:30;;;;;;;1.77;1.40;;;;;;;23.31;42.73;99174.28;5054588;28;20228;-51
2021/08/24 07:54:56;;;;;;;2.03;1.50;;;;;;;23.33;42.64;99171.47;5054430;28;20556;-49
2021/08/24 07:57:23;;;;;;;1.97;1.50;;;;;;;23.37;42.84;99172.78;5054539;28;20251;-50
2021/08/24 07:59:49;;;;;;;2.00;1.70;;;;;;;23.43;42.68;99180.09;5054759;28;20204;-49
2021/08/24 08:02:17;;;;;;;2.07;1.50;;;;;;;23.50;42.33;99170.38;5054640;28;20570;-49
2021/08/24 08:04:45;;;;;;;2.53;1.80;;;;;;;23.63;41.98;99166.28;5054688;28;20605;-49
2021/08/24 08:07:13;;;;;;;1.97;1.57;;;;;;;23.61;42.03;99162.97;5054550;28;20556;-50
2021/08/24 08:09:41;;;;;;;1.50;1.30;;;;;;;23.60;41.85;99171.97;5054557;28;20660;-49
2021/08/24 08:12:08;;;;;;;1.60;1.50;;;;;;;23.57;41.79;99167.81;5054437;28;20687;-49
2021/08/24 08:14:35;;;;;;;2.53;1.80;;;;;;;23.55;41.82;99164.50;5054347;28;20194;-50
2021/08/24 08:17:03;;;;;;;3.13;1.70;;;;;;;23.56;41.73;99175.97;5054373;28;20185;-50
2021/08/24 08:19:29;;;;;;;3.20;1.70;;;;;;;23.52;41.87;99178.19;5054285;28;20201;-49
2021/08/24 08:21:56;;;;;;;1.67;1.57;;;;;;;23.50;41.84;99173.03;5053874;28;20220;-49
2021/08/24 08:24:23;;;;;;;1.67;1.57;;;;;;;23.51;41.71;99171.22;5052858;28;20187;-53
2021/08/24 08:26:49;;;;;;;2.33;1.53;;;;;;;23.52;41.52;99164.88;5052624;28;20228;-50
2021/08/24 08:29:16;;;;;;;2.13;1.60;;;;;;;23.57;41.73;99162.50;5053617;28;20550;-51
2021/08/24 08:31:46;;;;;;;1.93;1.60;;;;;;;23.67;41.41;99162.25;5053772;28;20652;-50
2021/08/24 08:34:13;;;;;;;2.60;1.40;;;;;;;23.76;41.35;99158.53;5054416;28;20173;-50
2021/08/24 08:36:41;;;;;;;1.67;1.50;;;;;;;23.78;41.78;99159.19;5053996;28;20264;-50
2021/08/24 08:39:07;;;;;;;1.77;1.67;;;;;;;23.89;41.76;99155.25;5053733;28;20193;-50
2021/08/24 08:41:45;;;;;;;1.50;1.40;;;;;;;23.94;41.99;99152.06;5053674;28;20204;-51
2021/08/24 08:44:32;;;;;;;2.13;1.50;;;;;;;24.01;42.35;99163.66;5053650;28;20225;-51
2021/08/24 08:47:22;;;;;;;1.80;1.60;;;;;;;24.03;42.12;99156.34;5053840;28;20196;-50
2021/08/24 08:49:58;;;;;;;1.60;1.40;;;;;;;24.06;42.28;99156.00;5053548;28;20193;-50
2021/08/24 08:52:35;;;;;;;1.57;1.40;;;;;;;24.06;42.40;99152.50;5053475;28;20217;-50
2021/08/24 08:55:12;;;;;;;2.43;1.90;;;;;;;24.08;42.45;99167.31;5053711;28;20207;-51
2021/08/24 08:57:50;;;;;;;1.53;1.43;;;;;;;24.06;42.45;99158.66;5053681;28;20169;-50
2021/08/24 09:00:24;;;;;;;1.80;1.70;;;;;;;24.08;42.60;99161.97;5053303;28;20188;-50
2021/08/24 09:03:04;;;;;;;2.43;1.50;;;;;;;24.15;42.57;99161.25;5053371;28;20213;-50
2021/08/24 09:05:31;;;;;;;2.47;1.60;;;;;;;24.24;42.37;99160.16;5053729;28;20510;-51
2021/08/24 09:08:00;;;;;;;1.50;1.40;;;;;;;24.29;42.34;99151.63;5053045;28;20245;-50
2021/08/24 09:10:39;;;;;;;1.60;1.50;;;;;;;24.31;42.64;99149.59;5053599;28;20189;-50
2021/08/24 09:13:28;;;;;;;1.90;1.70;;;;;;;24.27;42.70;99157.13;5053007;28;20713;-50
2021/08/24 09:16:01;;;;;;;1.70;1.47;;;;;;;24.35;42.67;99158.88;5049172;28;20555;-50
2021/08/24 09:18:39;;;;;;;1.60;1.50;;;;;;;24.40;42.51;99166.34;5053561;28;20174;-50
2021/08/24 09:21:09;;;;;;;2.80;1.67;;;;;;;24.42;42.64;99165.13;5053137;28;20616;-50
2021/08/24 09:23:36;;;;;;;1.40;1.30;;;;;;;24.45;42.66;99156.78;5052959;28;20205;-50
2021/08/24 09:26:23;;;;;;;2.10;1.30;;;;;;;24.47;42.71;99156.59;5052203;28;20186;-51
2021/08/24 09:28:53;;;;;;;2.70;1.53;;;;;;;24.57;42.37;99154.50;5052812;28;20193;-50
2021/08/24 09:31:21;;;;;;;1.77;1.50;;;;;;;24.63;42.37;99160.94;5052854;28;20190;-51
2021/08/24 09:33:49;;;;;;;2.03;1.83;;;;;;;24.70;42.31;99155.69;5052756;28;20217;-52
2021/08/24 09:36:17;;;;;;;1.70;1.60;;;;;;;24.72;42.25;99156.31;5053023;28;20196;-52
2021/08/24 09:38:51;;;;;;;1.57;1.47;;;;;;;24.74;42.29;99157.78;5052860;28;20554;-52
2021/08/24 09:41:24;;;;;;;1.47;1.37;;;;;;;24.79;42.29;99166.09;5053310;28;20177;-51
2021/08/24 09:43:57;;;;;;;1.60;1.50;;;;;;;24.83;42.15;99166.53;5051503;28;20221;-52
2021/08/24 09:46:32;;;;;;;1.57;1.47;;;;;;;24.81;42.15;99160.56;5051760;28;20632;-53
2021/08/24 09:49:03;;;;;;;2.47;1.43;;;;;;;24.84;42.14;99165.53;5053066;28;20203;-54
2021/08/24 09:52:18;;;;;;;2.23;1.40;;;;;;;24.89;42.09;99163.16;5052825;28;20170;-51
2021/08/24 09:54:54;;;;;;;1.70;1.60;;;;;;;24.90;42.09;99172.81;5030933;28;20205;-52
2021/08/24 09:57:28;;;;;;;3.33;1.50;;;;;;;24.88;42.13;99172.19;5051734;28;20215;-53
2021/08/24 10:00:26;;;;;;;2.13;1.50;;;;;;;24.89;42.37;99160.47;5052703;28;20636;-52
2021/08/24 10:02:57;;;;;;;1.70;1.60;;;;;;;24.89;42.36;99157.81;5052792;28;20576;-56
2021/08/24 10:05:29;;;;;;;1.53;1.40;;;;;;;24.87;42.32;99162.50;5053213;28;20188;-49
2021/08/24 10:08:01;;;;;;;3.33;1.70;;;;;;;24.80;42.13;99162.44;5052994;28;20213;-51
2021/08/24 10:10:36;;;;;;;2.43;1.50;;;;;;;24.67;41.86;99160.34;5051350;28;20181;-50
2021/08/24 10:13:39;;;;;;;2.17;1.97;;;;;;;24.59;41.48;99155.13;5054993;28;20220;-50
2021/08/24 10:16:27;;;;;;;2.67;1.70;;;;;;;24.49;41.56;99154.56;5064192;28;20587;-50
2021/08/24 10:19:13;;;;;;;3.77;2.10;;;;;;;24.42;41.24;99148.31;5032702;28;20175;-52
2021/08/24 10:21:51;;;;;;;3.17;1.80;;;;;;;24.37;40.99;99155.03;5050122;28;20522;-46
2021/08/24 10:24:32;;;;;;;2.93;2.10;;;;;;;24.34;41.04;99151.91;5072753;28;20180;-50
2021/08/24 10:27:04;;;;;;;3.80;2.40;;;;;;;24.36;41.09;99147.19;5066114;28;20225;-50
2021/08/24 10:29:35;;;;;;;4.00;2.23;;;;;;;24.34;41.45;99138.56;5055393;28;20263;-48
2021/08/24 10:32:06;;;;;;;3.07;2.00;;;;;;;24.35;41.58;99141.03;5064762;28;20699;-52
2021/08/24 10:34:38;;;;;;;2.03;1.80;;;;;;;24.39;41.83;99141.50;5070656;28;20192;-51
2021/08/24 10:37:23;;;;;;;2.90;2.10;;;;;;;24.42;42.41;99150.97;5077485;28;20184;-50
2021/08/24 10:39:54;;;;;;;4.37;2.50;;;;;;;24.45;42.42;99154.13;5037614;28;20190;-49
2021/08/24 10:42:30;;;;;;;2.53;1.80;;;;;;;24.54;42.73;99152.19;5037857;28;20602;-49
2021/08/24 10:45:00;;;;;;;3.00;1.87;;;;;;;24.53;42.80;99146.00;5062065;28;20184;-49
2021/08/24 10:47:49;;;;;;;2.33;2.00;;;;;;;24.49;42.24;99149.22;5057975;28;20197;-47
2021/08/24 10:50:22;;;;;;;2.67;2.13;;;;;;;24.45;42.27;99147.94;5076220;28;20181;-48
2021/08/24 10:52:59;;;;;;;2.83;2.00;;;;;;;24.47;42.43;99145.91;5066484;28;20201;-49
2021/08/24 10:55:54;;;;;;;3.00;1.80;;;;;;;24.42;42.23;99142.97;5056558;28;20188;-51
2021/08/24 10:59:03;;;;;;;4.17;2.07;;;;;;;24.43;42.33;99147.31;5053868;28;20193;-48
2021/08/24 11:01:38;;;;;;;2.63;1.90;;;;;;;24.44;41.92;99133.75;5066197;28;20188;-49
2021/08/24 11:04:20;;;;;;;2.63;2.20;;;;;;;24.45;41.90;99127.44;5075992;28;20259;-49
2021/08/24 11:07:03;;;;;;;5.33;1.93;;;;;;;24.48;42.21;99144.91;5075919;28;20192;-49
2021/08/24 11:09:47;;;;;;;2.63;1.80;;;;;;;24.47;42.24;99136.09;5075809;28;20188;-49
2021/08/24 11:12:40;;;;;;;3.77;2.23;;;;;;;24.59;42.21;99143.59;5075636;28;20580;-49
2021/08/24 11:15:34;;;;;;;3.43;2.03;;;;;;;24.64;41.29;99143.91;5075555;28;20180;-49
2021/08/24 11:18:05;;;;;;;3.93;2.27;;;;;;;24.64;41.43;99143.91;5069378;28;20177;-49
2021/08/24 11:20:54;;;;;;;2.17;1.80;;;;;;;24.55;41.88;99143.19;5055323;28;20193;-50
2021/08/24 11:23:49;;;;;;;2.77;2.33;;;;;;;24.57;41.99;99132.28;5052173;28;20221;-48
2021/08/24 11:26:40;;;;;;;2.67;1.90;;;;;;;24.57;41.88;99130.47;5055726;28;20181;-48
2021/08/24 11:29:17;;;;;;;4.00;2.00;;;;;;;24.56;42.05;99146.66;5055084;28;20201;-49
2021/08/24 11:31:53;;;;;;;2.00;1.60;;;;;;;24.57;42.09;99140.31;5055153;28;20181;-49
2021/08/24 11:34:24;;;;;;;1.73;1.63;;;;;;;24.58;42.26;99132.13;5055685;28;20181;-47
2021/08/24 11:36:59;;;;;;;4.30;2.13;;;;;;;24.54;42.17;99138.84;5054711;28;20631;-50
2021/08/24 11:39:37;;;;;;;2.43;2.20;;;;;;;24.53;41.96;99145.19;5054751;28;20178;-49
2021/08/24 11:42:05;;;;;;;3.00;2.50;;;;;;;24.51;42.14;99142.72;5055469;28;20225;-49
2021/08/24 11:44:39;;;;;;;4.53;2.20;;;;;;;24.54;41.92;99141.53;5055034;28;20193;-49
2021/08/24 11:47:13;;;;;;;4.27;2.03;;;;;;;24.63;42.04;99137.72;5055551;28;20632;-49
2021/08/24 11:49:55;;;;;;;3.13;2.20;;;;;;;24.63;42.08;99134.25;5055185;28;20173;-49
2021/08/24 11:52:48;;;;;;;3.00;2.30;;;;;;;24.64;41.91;99141.25;5055037;28;20217;-49
2021/08/24 11:55:26;;;;;;;4.07;2.17;;;;;;;24.65;42.23;99149.03;5054817;28;20182;-48
2021/08/24 11:58:30;;;;;;;3.37;2.40;;;;;;;24.66;42.16;99140.03;5054880;28;20176;-49